sensor_id;sensor_type;location;lat;lon;timestamp;P1;durP1;ratioP1;P2;durP2;ratioP2
14975;SDS011;7584;60.468;25.126;2023-09-19T00:00:36;1.43;;;1.17;;
14975;SDS011;7584;60.468;25.126;2023-09-19T00:03:02;1.83;;;1.40;;
14975;SDS011;7584;60.468;25.126;2023-09-19T00:05:33;2.67;;;1.10;;
14975;SDS011;7584;60.468;25.126;2023-09-19T00:08:00;3.43;;;1.07;;
14975;SDS011;7584;60.468;25.126;2023-09-19T00:10:26;5.60;;;1.10;;
14975;SDS011;7584;60.468;25.126;2023-09-19T00:12:54;3.67;;;1.37;;
14975;SDS011;7584;60.468;25.126;2023-09-19T00:15:25;3.30;;;1.20;;
14975;SDS011;7584;60.468;25.126;2023-09-19T00:17:53;3.83;;;1.53;;
14975;SDS011;7584;60.468;25.126;2023-09-19T00:20:18;4.10;;;1.30;;
14975;SDS011;7584;60.468;25.126;2023-09-19T00:22:43;2.93;;;1.27;;
14975;SDS011;7584;60.468;25.126;2023-09-19T00:25:09;4.83;;;1.10;;
14975;SDS011;7584;60.468;25.126;2023-09-19T00:27:35;2.43;;;1.60;;
14975;SDS011;7584;60.468;25.126;2023-09-19T00:30:00;5.57;;;1.30;;
14975;SDS011;7584;60.468;25.126;2023-09-19T00:32:26;1.93;;;1.07;;
14975;SDS011;7584;60.468;25.126;2023-09-19T00:34:56;3.93;;;1.40;;
14975;SDS011;7584;60.468;25.126;2023-09-19T00:37:22;2.43;;;1.30;;
14975;SDS011;7584;60.468;25.126;2023-09-19T00:39:47;4.87;;;1.40;;
14975;SDS011;7584;60.468;25.126;2023-09-19T00:42:21;6.37;;;1.30;;
14975;SDS011;7584;60.468;25.126;2023-09-19T00:44:47;2.70;;;1.30;;
14975;SDS011;7584;60.468;25.126;2023-09-19T00:47:16;1.73;;;1.43;;
14975;SDS011;7584;60.468;25.126;2023-09-19T00:49:42;2.10;;;1.17;;
14975;SDS011;7584;60.468;25.126;2023-09-19T00:52:08;5.30;;;1.27;;
14975;SDS011;7584;60.468;25.126;2023-09-19T00:54:35;3.53;;;1.30;;
14975;SDS011;7584;60.468;25.126;2023-09-19T00:57:01;4.30;;;1.47;;
14975;SDS011;7584;60.468;25.126;2023-09-19T00:59:26;2.03;;;1.40;;
14975;SDS011;7584;60.468;25.126;2023-09-19T01:01:52;5.37;;;1.43;;
14975;SDS011;7584;60.468;25.126;2023-09-19T01:04:19;3.37;;;1.40;;
14975;SDS011;7584;60.468;25.126;2023-09-19T01:06:44;4.10;;;1.60;;
14975;SDS011;7584;60.468;25.126;2023-09-19T01:09:10;4.87;;;1.63;;
14975;SDS011;7584;60.468;25.126;2023-09-19T01:11:40;5.60;;;1.77;;
14975;SDS011;7584;60.468;25.126;2023-09-19T01:17:00;3.33;;;1.60;;
14975;SDS011;7584;60.468;25.126;2023-09-19T01:29:50;3.03;;;1.37;;
14975;SDS011;7584;60.468;25.126;2023-09-19T01:32:17;10.07;;;2.00;;
14975;SDS011;7584;60.468;25.126;2023-09-19T01:34:50;3.53;;;1.33;;
14975;SDS011;7584;60.468;25.126;2023-09-19T01:37:16;7.40;;;2.03;;
14975;SDS011;7584;60.468;25.126;2023-09-19T01:39:52;2.10;;;1.40;;
14975;SDS011;7584;60.468;25.126;2023-09-19T01:42:29;6.23;;;2.00;;
14975;SDS011;7584;60.468;25.126;2023-09-19T01:45:02;2.90;;;1.63;;
14975;SDS011;7584;60.468;25.126;2023-09-19T01:47:33;2.60;;;1.47;;
14975;SDS011;7584;60.468;25.126;2023-09-19T01:52:47;2.93;;;1.60;;
14975;SDS011;7584;60.468;25.126;2023-09-19T01:55:13;3.93;;;1.57;;
14975;SDS011;7584;60.468;25.126;2023-09-19T01:57:46;4.93;;;1.77;;
14975;SDS011;7584;60.468;25.126;2023-09-19T02:00:15;3.67;;;1.70;;
14975;SDS011;7584;60.468;25.126;2023-09-19T02:02:43;4.27;;;1.97;;
14975;SDS011;7584;60.468;25.126;2023-09-19T02:05:09;8.13;;;1.77;;
14975;SDS011;7584;60.468;25.126;2023-09-19T02:07:35;4.70;;;1.77;;
14975;SDS011;7584;60.468;25.126;2023-09-19T02:10:03;4.40;;;1.83;;
14975;SDS011;7584;60.468;25.126;2023-09-19T02:12:30;2.53;;;1.70;;
14975;SDS011;7584;60.468;25.126;2023-09-19T02:14:56;2.70;;;1.90;;
14975;SDS011;7584;60.468;25.126;2023-09-19T02:17:22;4.03;;;1.97;;
14975;SDS011;7584;60.468;25.126;2023-09-19T02:19:51;3.23;;;1.73;;
14975;SDS011;7584;60.468;25.126;2023-09-19T02:22:17;4.10;;;1.80;;
14975;SDS011;7584;60.468;25.126;2023-09-19T02:24:42;3.37;;;1.60;;
14975;SDS011;7584;60.468;25.126;2023-09-19T02:27:08;5.90;;;1.77;;
14975;SDS011;7584;60.468;25.126;2023-09-19T02:29:33;7.83;;;2.60;;
14975;SDS011;7584;60.468;25.126;2023-09-19T02:32:01;4.77;;;1.80;;
14975;SDS011;7584;60.468;25.126;2023-09-19T02:34:27;3.70;;;1.90;;
14975;SDS011;7584;60.468;25.126;2023-09-19T02:36:52;4.20;;;1.90;;
14975;SDS011;7584;60.468;25.126;2023-09-19T02:39:20;6.30;;;2.40;;
14975;SDS011;7584;60.468;25.126;2023-09-19T02:41:45;9.37;;;2.27;;
14975;SDS011;7584;60.468;25.126;2023-09-19T02:44:11;5.57;;;2.20;;
14975;SDS011;7584;60.468;25.126;2023-09-19T02:46:37;5.73;;;2.57;;
14975;SDS011;7584;60.468;25.126;2023-09-19T02:49:02;10.43;;;2.20;;
14975;SDS011;7584;60.468;25.126;2023-09-19T02:51:31;5.80;;;2.27;;
14975;SDS011;7584;60.468;25.126;2023-09-19T02:53:58;5.03;;;2.20;;
14975;SDS011;7584;60.468;25.126;2023-09-19T02:56:24;8.93;;;2.53;;
14975;SDS011;7584;60.468;25.126;2023-09-19T02:58:50;4.00;;;2.87;;
14975;SDS011;7584;60.468;25.126;2023-09-19T03:01:16;4.43;;;2.37;;
14975;SDS011;7584;60.468;25.126;2023-09-19T03:03:43;6.13;;;2.80;;
14975;SDS011;7584;60.468;25.126;2023-09-19T03:06:10;12.93;;;2.73;;
14975;SDS011;7584;60.468;25.126;2023-09-19T03:08:36;3.87;;;2.17;;
14975;SDS011;7584;60.468;25.126;2023-09-19T03:11:04;10.53;;;2.87;;
14975;SDS011;7584;60.468;25.126;2023-09-19T03:13:31;7.90;;;2.43;;
14975;SDS011;7584;60.468;25.126;2023-09-19T03:15:56;6.17;;;2.33;;
14975;SDS011;7584;60.468;25.126;2023-09-19T03:18:26;6.23;;;2.43;;
14975;SDS011;7584;60.468;25.126;2023-09-19T03:20:54;5.47;;;2.40;;
14975;SDS011;7584;60.468;25.126;2023-09-19T03:23:20;5.97;;;2.07;;
14975;SDS011;7584;60.468;25.126;2023-09-19T03:25:45;6.20;;;2.47;;
14975;SDS011;7584;60.468;25.126;2023-09-19T03:28:11;7.07;;;2.50;;
14975;SDS011;7584;60.468;25.126;2023-09-19T03:30:37;4.43;;;2.10;;
14975;SDS011;7584;60.468;25.126;2023-09-19T03:33:03;5.50;;;2.40;;
14975;SDS011;7584;60.468;25.126;2023-09-19T03:35:29;6.13;;;2.07;;
14975;SDS011;7584;60.468;25.126;2023-09-19T03:37:55;2.00;;;1.50;;
14975;SDS011;7584;60.468;25.126;2023-09-19T03:40:21;9.40;;;2.10;;
14975;SDS011;7584;60.468;25.126;2023-09-19T03:42:46;10.87;;;2.20;;
14975;SDS011;7584;60.468;25.126;2023-09-19T03:45:13;5.57;;;1.87;;
14975;SDS011;7584;60.468;25.126;2023-09-19T03:47:41;2.90;;;1.63;;
14975;SDS011;7584;60.468;25.126;2023-09-19T03:50:06;2.33;;;1.60;;
14975;SDS011;7584;60.468;25.126;2023-09-19T03:52:40;6.80;;;1.90;;
14975;SDS011;7584;60.468;25.126;2023-09-19T03:55:05;3.30;;;1.40;;
14975;SDS011;7584;60.468;25.126;2023-09-19T03:57:31;3.73;;;2.17;;
14975;SDS011;7584;60.468;25.126;2023-09-19T03:59:56;6.87;;;2.10;;
14975;SDS011;7584;60.468;25.126;2023-09-19T04:02:22;4.27;;;2.20;;
14975;SDS011;7584;60.468;25.126;2023-09-19T04:04:48;5.57;;;1.93;;
14975;SDS011;7584;60.468;25.126;2023-09-19T04:07:13;5.17;;;2.40;;
14975;SDS011;7584;60.468;25.126;2023-09-19T04:09:38;4.77;;;2.07;;
14975;SDS011;7584;60.468;25.126;2023-09-19T04:12:04;5.13;;;2.10;;
14975;SDS011;7584;60.468;25.126;2023-09-19T04:14:30;10.57;;;2.20;;
14975;SDS011;7584;60.468;25.126;2023-09-19T04:16:55;6.47;;;2.17;;
14975;SDS011;7584;60.468;25.126;2023-09-19T04:19:21;5.10;;;1.97;;
14975;SDS011;7584;60.468;25.126;2023-09-19T04:21:47;3.40;;;1.77;;
14975;SDS011;7584;60.468;25.126;2023-09-19T04:24:13;7.60;;;2.27;;
14975;SDS011;7584;60.468;25.126;2023-09-19T04:26:39;4.77;;;2.33;;
14975;SDS011;7584;60.468;25.126;2023-09-19T04:29:04;7.00;;;2.67;;
14975;SDS011;7584;60.468;25.126;2023-09-19T04:31:31;4.93;;;2.07;;
14975;SDS011;7584;60.468;25.126;2023-09-19T04:33:56;10.13;;;2.73;;
14975;SDS011;7584;60.468;25.126;2023-09-19T04:36:23;6.60;;;2.33;;
14975;SDS011;7584;60.468;25.126;2023-09-19T04:38:48;5.60;;;2.63;;
14975;SDS011;7584;60.468;25.126;2023-09-19T04:41:13;4.83;;;2.40;;
14975;SDS011;7584;60.468;25.126;2023-09-19T04:43:40;4.20;;;2.20;;
14975;SDS011;7584;60.468;25.126;2023-09-19T04:46:05;3.37;;;2.33;;
14975;SDS011;7584;60.468;25.126;2023-09-19T04:48:32;3.30;;;2.20;;
14975;SDS011;7584;60.468;25.126;2023-09-19T04:50:59;5.40;;;2.37;;
14975;SDS011;7584;60.468;25.126;2023-09-19T04:53:24;6.80;;;2.07;;
14975;SDS011;7584;60.468;25.126;2023-09-19T04:55:51;4.07;;;2.23;;
14975;SDS011;7584;60.468;25.126;2023-09-19T04:58:17;5.00;;;2.20;;
14975;SDS011;7584;60.468;25.126;2023-09-19T05:00:44;8.40;;;2.30;;
14975;SDS011;7584;60.468;25.126;2023-09-19T05:03:09;5.10;;;2.33;;
14975;SDS011;7584;60.468;25.126;2023-09-19T05:05:35;6.17;;;2.53;;
14975;SDS011;7584;60.468;25.126;2023-09-19T05:08:00;3.73;;;2.20;;
14975;SDS011;7584;60.468;25.126;2023-09-19T05:10:26;4.73;;;2.30;;
14975;SDS011;7584;60.468;25.126;2023-09-19T05:12:54;6.63;;;2.10;;
14975;SDS011;7584;60.468;25.126;2023-09-19T05:15:20;9.80;;;3.17;;
14975;SDS011;7584;60.468;25.126;2023-09-19T05:17:49;4.83;;;2.53;;
14975;SDS011;7584;60.468;25.126;2023-09-19T05:20:20;6.67;;;2.50;;
14975;SDS011;7584;60.468;25.126;2023-09-19T05:23:12;7.33;;;2.50;;
14975;SDS011;7584;60.468;25.126;2023-09-19T05:25:38;4.90;;;2.80;;
14975;SDS011;7584;60.468;25.126;2023-09-19T05:28:07;6.20;;;2.57;;
14975;SDS011;7584;60.468;25.126;2023-09-19T05:30:33;6.33;;;2.30;;
14975;SDS011;7584;60.468;25.126;2023-09-19T05:33:01;5.33;;;2.47;;
14975;SDS011;7584;60.468;25.126;2023-09-19T05:35:27;6.47;;;2.50;;
14975;SDS011;7584;60.468;25.126;2023-09-19T05:37:52;5.00;;;2.40;;
14975;SDS011;7584;60.468;25.126;2023-09-19T05:40:18;4.37;;;2.20;;
14975;SDS011;7584;60.468;25.126;2023-09-19T05:42:44;2.97;;;1.90;;
14975;SDS011;7584;60.468;25.126;2023-09-19T05:45:10;2.80;;;2.27;;
14975;SDS011;7584;60.468;25.126;2023-09-19T05:47:39;4.87;;;2.70;;
14975;SDS011;7584;60.468;25.126;2023-09-19T05:50:05;6.47;;;2.90;;
14975;SDS011;7584;60.468;25.126;2023-09-19T05:52:32;6.17;;;3.03;;
14975;SDS011;7584;60.468;25.126;2023-09-19T05:54:58;6.27;;;3.30;;
14975;SDS011;7584;60.468;25.126;2023-09-19T05:57:23;8.17;;;3.10;;
14975;SDS011;7584;60.468;25.126;2023-09-19T05:59:49;3.97;;;2.53;;
14975;SDS011;7584;60.468;25.126;2023-09-19T06:02:15;8.27;;;2.90;;
14975;SDS011;7584;60.468;25.126;2023-09-19T06:04:41;4.53;;;2.67;;
14975;SDS011;7584;60.468;25.126;2023-09-19T06:07:06;6.90;;;2.93;;
14975;SDS011;7584;60.468;25.126;2023-09-19T06:09:31;5.70;;;3.27;;
14975;SDS011;7584;60.468;25.126;2023-09-19T06:11:57;3.57;;;2.87;;
14975;SDS011;7584;60.468;25.126;2023-09-19T06:14:22;7.27;;;3.13;;
14975;SDS011;7584;60.468;25.126;2023-09-19T06:16:49;8.93;;;3.70;;
14975;SDS011;7584;60.468;25.126;2023-09-19T06:19:15;4.10;;;3.43;;
14975;SDS011;7584;60.468;25.126;2023-09-19T06:21:40;8.80;;;3.57;;
14975;SDS011;7584;60.468;25.126;2023-09-19T06:24:05;6.77;;;4.10;;
14975;SDS011;7584;60.468;25.126;2023-09-19T06:26:31;8.07;;;3.67;;
14975;SDS011;7584;60.468;25.126;2023-09-19T06:28:57;5.30;;;4.00;;
14975;SDS011;7584;60.468;25.126;2023-09-19T06:31:22;6.60;;;4.30;;
14975;SDS011;7584;60.468;25.126;2023-09-19T06:33:51;6.77;;;4.83;;
14975;SDS011;7584;60.468;25.126;2023-09-19T06:36:16;6.03;;;4.40;;
14975;SDS011;7584;60.468;25.126;2023-09-19T06:38:42;6.90;;;6.00;;
14975;SDS011;7584;60.468;25.126;2023-09-19T06:41:07;10.50;;;4.77;;
14975;SDS011;7584;60.468;25.126;2023-09-19T06:43:34;6.50;;;5.10;;
14975;SDS011;7584;60.468;25.126;2023-09-19T06:46:02;6.03;;;4.87;;
14975;SDS011;7584;60.468;25.126;2023-09-19T06:48:27;5.83;;;5.17;;
14975;SDS011;7584;60.468;25.126;2023-09-19T06:50:55;7.17;;;5.70;;
14975;SDS011;7584;60.468;25.126;2023-09-19T06:53:20;7.70;;;6.13;;
14975;SDS011;7584;60.468;25.126;2023-09-19T06:55:46;6.33;;;5.73;;
14975;SDS011;7584;60.468;25.126;2023-09-19T06:58:12;8.37;;;5.97;;
14975;SDS011;7584;60.468;25.126;2023-09-19T07:00:38;9.33;;;6.77;;
14975;SDS011;7584;60.468;25.126;2023-09-19T07:05:32;8.83;;;6.30;;
14975;SDS011;7584;60.468;25.126;2023-09-19T07:07:58;9.00;;;6.33;;
14975;SDS011;7584;60.468;25.126;2023-09-19T07:10:24;8.20;;;6.07;;
14975;SDS011;7584;60.468;25.126;2023-09-19T07:13:00;6.07;;;5.47;;
14975;SDS011;7584;60.468;25.126;2023-09-19T07:15:26;7.63;;;5.53;;
14975;SDS011;7584;60.468;25.126;2023-09-19T07:17:52;6.93;;;4.90;;
14975;SDS011;7584;60.468;25.126;2023-09-19T07:20:18;5.40;;;4.90;;
14975;SDS011;7584;60.468;25.126;2023-09-19T07:22:44;10.30;;;6.53;;
14975;SDS011;7584;60.468;25.126;2023-09-19T07:25:09;9.87;;;6.03;;
14975;SDS011;7584;60.468;25.126;2023-09-19T07:27:35;7.43;;;6.10;;
14975;SDS011;7584;60.468;25.126;2023-09-19T07:30:00;7.93;;;6.93;;
14975;SDS011;7584;60.468;25.126;2023-09-19T07:32:25;7.83;;;5.93;;
14975;SDS011;7584;60.468;25.126;2023-09-19T07:34:51;7.00;;;6.30;;
14975;SDS011;7584;60.468;25.126;2023-09-19T07:37:16;11.83;;;7.33;;
14975;SDS011;7584;60.468;25.126;2023-09-19T07:39:42;9.97;;;7.20;;
14975;SDS011;7584;60.468;25.126;2023-09-19T07:42:08;11.43;;;6.73;;
14975;SDS011;7584;60.468;25.126;2023-09-19T07:44:35;9.23;;;7.53;;
14975;SDS011;7584;60.468;25.126;2023-09-19T07:47:00;10.03;;;8.10;;
14975;SDS011;7584;60.468;25.126;2023-09-19T07:49:28;10.73;;;8.23;;
14975;SDS011;7584;60.468;25.126;2023-09-19T07:51:53;10.00;;;8.40;;
14975;SDS011;7584;60.468;25.126;2023-09-19T07:54:19;10.13;;;8.93;;
14975;SDS011;7584;60.468;25.126;2023-09-19T07:56:45;13.40;;;8.50;;
14975;SDS011;7584;60.468;25.126;2023-09-19T07:59:11;10.20;;;8.27;;
14975;SDS011;7584;60.468;25.126;2023-09-19T08:01:37;11.17;;;8.10;;
14975;SDS011;7584;60.468;25.126;2023-09-19T08:04:02;12.83;;;8.37;;
14975;SDS011;7584;60.468;25.126;2023-09-19T08:06:27;9.83;;;8.10;;
14975;SDS011;7584;60.468;25.126;2023-09-19T08:08:55;10.93;;;9.33;;
14975;SDS011;7584;60.468;25.126;2023-09-19T08:11:22;9.77;;;8.30;;
14975;SDS011;7584;60.468;25.126;2023-09-19T08:13:49;12.13;;;9.27;;
14975;SDS011;7584;60.468;25.126;2023-09-19T08:16:15;13.43;;;9.50;;
14975;SDS011;7584;60.468;25.126;2023-09-19T08:18:40;14.73;;;9.13;;
14975;SDS011;7584;60.468;25.126;2023-09-19T08:21:06;12.48;;;9.80;;
14975;SDS011;7584;60.468;25.126;2023-09-19T08:23:36;13.13;;;10.00;;
14975;SDS011;7584;60.468;25.126;2023-09-19T08:26:01;12.85;;;9.73;;
14975;SDS011;7584;60.468;25.126;2023-09-19T08:28:32;11.97;;;10.00;;
14975;SDS011;7584;60.468;25.126;2023-09-19T08:31:07;12.80;;;10.55;;
14975;SDS011;7584;60.468;25.126;2023-09-19T08:33:34;12.23;;;10.88;;
14975;SDS011;7584;60.468;25.126;2023-09-19T08:36:00;15.27;;;11.77;;
14975;SDS011;7584;60.468;25.126;2023-09-19T08:38:25;16.80;;;11.13;;
14975;SDS011;7584;60.468;25.126;2023-09-19T08:40:57;14.13;;;10.63;;
14975;SDS011;7584;60.468;25.126;2023-09-19T08:43:24;12.68;;;10.65;;
14975;SDS011;7584;60.468;25.126;2023-09-19T08:45:49;13.68;;;11.43;;
14975;SDS011;7584;60.468;25.126;2023-09-19T08:48:21;16.17;;;12.15;;
14975;SDS011;7584;60.468;25.126;2023-09-19T08:51:05;17.20;;;13.10;;
14975;SDS011;7584;60.468;25.126;2023-09-19T08:53:39;14.75;;;11.40;;
14975;SDS011;7584;60.468;25.126;2023-09-19T08:56:07;15.38;;;11.63;;
14975;SDS011;7584;60.468;25.126;2023-09-19T08:58:34;18.35;;;11.95;;
14975;SDS011;7584;60.468;25.126;2023-09-19T09:01:05;12.40;;;10.65;;
14975;SDS011;7584;60.468;25.126;2023-09-19T09:03:32;13.52;;;10.73;;
14975;SDS011;7584;60.468;25.126;2023-09-19T09:05:59;15.65;;;10.90;;
14975;SDS011;7584;60.468;25.126;2023-09-19T09:08:24;15.35;;;11.70;;
14975;SDS011;7584;60.468;25.126;2023-09-19T09:10:50;15.27;;;11.15;;
14975;SDS011;7584;60.468;25.126;2023-09-19T09:13:16;19.58;;;13.40;;
14975;SDS011;7584;60.468;25.126;2023-09-19T09:15:42;27.97;;;16.80;;
14975;SDS011;7584;60.468;25.126;2023-09-19T09:18:09;27.25;;;18.30;;
14975;SDS011;7584;60.468;25.126;2023-09-19T09:20:35;19.83;;;14.53;;
14975;SDS011;7584;60.468;25.126;2023-09-19T09:23:01;17.00;;;14.15;;
14975;SDS011;7584;60.468;25.126;2023-09-19T09:25:50;19.00;;;14.00;;
14975;SDS011;7584;60.468;25.126;2023-09-19T09:28:20;14.10;;;11.73;;
14975;SDS011;7584;60.468;25.126;2023-09-19T09:30:46;16.23;;;12.60;;
14975;SDS011;7584;60.468;25.126;2023-09-19T09:33:13;13.40;;;11.20;;
14975;SDS011;7584;60.468;25.126;2023-09-19T09:38:17;14.40;;;11.25;;
14975;SDS011;7584;60.468;25.126;2023-09-19T09:40:47;14.00;;;10.25;;
14975;SDS011;7584;60.468;25.126;2023-09-19T09:43:30;11.13;;;9.85;;
14975;SDS011;7584;60.468;25.126;2023-09-19T09:51:38;16.15;;;11.20;;
14975;SDS011;7584;60.468;25.126;2023-09-19T09:54:17;15.27;;;11.67;;
14975;SDS011;7584;60.468;25.126;2023-09-19T09:56:55;13.52;;;10.55;;
14975;SDS011;7584;60.468;25.126;2023-09-19T09:59:42;14.55;;;11.23;;
14975;SDS011;7584;60.468;25.126;2023-09-19T10:02:11;17.75;;;11.80;;
14975;SDS011;7584;60.468;25.126;2023-09-19T10:04:38;13.73;;;11.25;;
14975;SDS011;7584;60.468;25.126;2023-09-19T10:07:29;14.25;;;11.60;;
14975;SDS011;7584;60.468;25.126;2023-09-19T10:10:04;23.25;;;11.18;;
14975;SDS011;7584;60.468;25.126;2023-09-19T10:12:46;14.57;;;11.80;;
14975;SDS011;7584;60.468;25.126;2023-09-19T10:15:13;13.63;;;11.25;;
14975;SDS011;7584;60.468;25.126;2023-09-19T10:17:44;14.48;;;11.70;;
14975;SDS011;7584;60.468;25.126;2023-09-19T10:20:12;14.75;;;12.45;;
14975;SDS011;7584;60.468;25.126;2023-09-19T10:22:43;14.87;;;12.07;;
14975;SDS011;7584;60.468;25.126;2023-09-19T10:25:21;18.13;;;12.98;;
14975;SDS011;7584;60.468;25.126;2023-09-19T10:27:48;16.38;;;12.98;;
14975;SDS011;7584;60.468;25.126;2023-09-19T10:30:15;17.63;;;13.30;;
14975;SDS011;7584;60.468;25.126;2023-09-19T10:32:41;18.02;;;13.77;;
14975;SDS011;7584;60.468;25.126;2023-09-19T10:35:06;16.40;;;13.23;;
14975;SDS011;7584;60.468;25.126;2023-09-19T10:37:32;17.97;;;13.73;;
14975;SDS011;7584;60.468;25.126;2023-09-19T10:39:59;13.95;;;12.43;;
14975;SDS011;7584;60.468;25.126;2023-09-19T10:42:24;16.60;;;13.03;;
14975;SDS011;7584;60.468;25.126;2023-09-19T10:44:52;17.88;;;13.63;;
14975;SDS011;7584;60.468;25.126;2023-09-19T10:47:19;19.15;;;13.95;;
14975;SDS011;7584;60.468;25.126;2023-09-19T10:49:45;20.50;;;13.73;;
14975;SDS011;7584;60.468;25.126;2023-09-19T10:52:11;19.83;;;13.63;;
14975;SDS011;7584;60.468;25.126;2023-09-19T10:54:41;17.02;;;14.15;;
14975;SDS011;7584;60.468;25.126;2023-09-19T10:57:10;16.25;;;14.05;;
14975;SDS011;7584;60.468;25.126;2023-09-19T10:59:35;15.75;;;13.10;;
14975;SDS011;7584;60.468;25.126;2023-09-19T11:02:15;15.75;;;13.18;;
14975;SDS011;7584;60.468;25.126;2023-09-19T11:04:42;15.65;;;12.90;;
14975;SDS011;7584;60.468;25.126;2023-09-19T11:07:14;14.57;;;11.93;;
14975;SDS011;7584;60.468;25.126;2023-09-19T11:09:43;17.75;;;12.25;;
14975;SDS011;7584;60.468;25.126;2023-09-19T11:12:11;16.33;;;12.63;;
14975;SDS011;7584;60.468;25.126;2023-09-19T11:14:40;15.85;;;11.73;;
14975;SDS011;7584;60.468;25.126;2023-09-19T11:22:22;15.23;;;10.80;;
14975;SDS011;7584;60.468;25.126;2023-09-19T11:24:48;14.15;;;10.35;;
14975;SDS011;7584;60.468;25.126;2023-09-19T11:27:15;13.48;;;9.80;;
14975;SDS011;7584;60.468;25.126;2023-09-19T11:29:43;12.30;;;9.57;;
14975;SDS011;7584;60.468;25.126;2023-09-19T11:32:09;11.80;;;8.75;;
14975;SDS011;7584;60.468;25.126;2023-09-19T11:34:45;11.88;;;9.55;;
14975;SDS011;7584;60.468;25.126;2023-09-19T11:39:39;11.98;;;8.65;;
14975;SDS011;7584;60.468;25.126;2023-09-19T11:44:52;12.15;;;9.00;;
14975;SDS011;7584;60.468;25.126;2023-09-19T11:47:21;13.90;;;7.80;;
14975;SDS011;7584;60.468;25.126;2023-09-19T11:49:47;11.00;;;7.80;;
14975;SDS011;7584;60.468;25.126;2023-09-19T11:52:16;10.85;;;7.65;;
14975;SDS011;7584;60.468;25.126;2023-09-19T11:54:47;11.05;;;8.55;;
14975;SDS011;7584;60.468;25.126;2023-09-19T11:57:22;8.23;;;6.82;;
14975;SDS011;7584;60.468;25.126;2023-09-19T11:59:47;10.48;;;7.47;;
14975;SDS011;7584;60.468;25.126;2023-09-19T12:02:13;9.20;;;7.55;;
14975;SDS011;7584;60.468;25.126;2023-09-19T12:04:44;9.35;;;7.43;;
14975;SDS011;7584;60.468;25.126;2023-09-19T12:07:13;10.50;;;7.28;;
14975;SDS011;7584;60.468;25.126;2023-09-19T12:09:50;9.32;;;7.10;;
14975;SDS011;7584;60.468;25.126;2023-09-19T12:12:23;7.97;;;7.18;;
14975;SDS011;7584;60.468;25.126;2023-09-19T12:14:48;10.80;;;7.80;;
14975;SDS011;7584;60.468;25.126;2023-09-19T12:17:14;9.68;;;6.70;;
14975;SDS011;7584;60.468;25.126;2023-09-19T12:19:49;10.55;;;7.30;;
14975;SDS011;7584;60.468;25.126;2023-09-19T12:22:15;10.20;;;7.32;;
14975;SDS011;7584;60.468;25.126;2023-09-19T12:24:41;8.95;;;7.60;;
14975;SDS011;7584;60.468;25.126;2023-09-19T12:27:09;8.98;;;7.43;;
14975;SDS011;7584;60.468;25.126;2023-09-19T12:32:08;10.02;;;7.25;;
14975;SDS011;7584;60.468;25.126;2023-09-19T12:34:33;9.30;;;7.03;;
14975;SDS011;7584;60.468;25.126;2023-09-19T12:37:07;8.65;;;7.20;;
14975;SDS011;7584;60.468;25.126;2023-09-19T12:40:06;9.00;;;7.07;;
14975;SDS011;7584;60.468;25.126;2023-09-19T12:42:43;9.75;;;7.78;;
14975;SDS011;7584;60.468;25.126;2023-09-19T12:45:09;11.05;;;7.43;;
14975;SDS011;7584;60.468;25.126;2023-09-19T12:47:35;9.20;;;7.20;;
14975;SDS011;7584;60.468;25.126;2023-09-19T12:50:07;9.98;;;8.07;;
14975;SDS011;7584;60.468;25.126;2023-09-19T12:52:38;8.50;;;7.47;;
14975;SDS011;7584;60.468;25.126;2023-09-19T12:55:03;8.55;;;7.18;;
14975;SDS011;7584;60.468;25.126;2023-09-19T12:57:30;14.45;;;8.20;;
14975;SDS011;7584;60.468;25.126;2023-09-19T12:59:57;10.02;;;8.13;;
14975;SDS011;7584;60.468;25.126;2023-09-19T13:02:22;9.07;;;7.57;;
14975;SDS011;7584;60.468;25.126;2023-09-19T13:04:53;14.23;;;8.18;;
14975;SDS011;7584;60.468;25.126;2023-09-19T13:10:03;17.05;;;10.90;;
14975;SDS011;7584;60.468;25.126;2023-09-19T13:12:36;10.43;;;8.02;;
14975;SDS011;7584;60.468;25.126;2023-09-19T13:15:09;22.38;;;13.77;;
14975;SDS011;7584;60.468;25.126;2023-09-19T13:17:44;13.30;;;9.23;;
14975;SDS011;7584;60.468;25.126;2023-09-19T13:20:26;13.80;;;9.43;;
14975;SDS011;7584;60.468;25.126;2023-09-19T13:22:55;12.05;;;8.75;;
14975;SDS011;7584;60.468;25.126;2023-09-19T13:25:25;11.55;;;7.93;;
14975;SDS011;7584;60.468;25.126;2023-09-19T13:27:55;13.38;;;10.57;;
14975;SDS011;7584;60.468;25.126;2023-09-19T13:30:24;11.40;;;9.50;;
14975;SDS011;7584;60.468;25.126;2023-09-19T13:32:50;11.40;;;9.10;;
14975;SDS011;7584;60.468;25.126;2023-09-19T13:35:16;11.45;;;8.57;;
14975;SDS011;7584;60.468;25.126;2023-09-19T13:37:41;11.32;;;8.20;;
14975;SDS011;7584;60.468;25.126;2023-09-19T13:42:33;9.68;;;8.10;;
14975;SDS011;7584;60.468;25.126;2023-09-19T13:44:58;9.80;;;7.32;;
14975;SDS011;7584;60.468;25.126;2023-09-19T13:47:24;9.68;;;7.72;;
14975;SDS011;7584;60.468;25.126;2023-09-19T13:49:51;10.63;;;8.48;;
14975;SDS011;7584;60.468;25.126;2023-09-19T13:52:18;13.38;;;8.25;;
14975;SDS011;7584;60.468;25.126;2023-09-19T13:54:43;9.23;;;8.10;;
14975;SDS011;7584;60.468;25.126;2023-09-19T13:57:09;13.20;;;9.32;;
14975;SDS011;7584;60.468;25.126;2023-09-19T13:59:35;11.50;;;9.05;;
14975;SDS011;7584;60.468;25.126;2023-09-19T14:02:00;12.65;;;8.73;;
14975;SDS011;7584;60.468;25.126;2023-09-19T14:04:25;11.93;;;10.27;;
14975;SDS011;7584;60.468;25.126;2023-09-19T14:06:52;13.75;;;9.82;;
14975;SDS011;7584;60.468;25.126;2023-09-19T14:09:17;13.77;;;9.82;;
14975;SDS011;7584;60.468;25.126;2023-09-19T14:11:44;13.68;;;10.60;;
14975;SDS011;7584;60.468;25.126;2023-09-19T14:14:12;11.75;;;10.55;;
14975;SDS011;7584;60.468;25.126;2023-09-19T14:16:37;15.90;;;10.50;;
14975;SDS011;7584;60.468;25.126;2023-09-19T14:19:04;17.75;;;10.57;;
14975;SDS011;7584;60.468;25.126;2023-09-19T14:21:30;11.93;;;10.10;;
14975;SDS011;7584;60.468;25.126;2023-09-19T14:23:55;16.75;;;10.70;;
14975;SDS011;7584;60.468;25.126;2023-09-19T14:26:21;16.85;;;12.35;;
14975;SDS011;7584;60.468;25.126;2023-09-19T14:28:48;17.13;;;11.52;;
14975;SDS011;7584;60.468;25.126;2023-09-19T14:31:13;14.05;;;11.60;;
14975;SDS011;7584;60.468;25.126;2023-09-19T14:33:40;16.88;;;11.68;;
14975;SDS011;7584;60.468;25.126;2023-09-19T14:36:06;15.35;;;12.07;;
14975;SDS011;7584;60.468;25.126;2023-09-19T14:38:33;16.98;;;13.30;;
14975;SDS011;7584;60.468;25.126;2023-09-19T14:41:02;17.33;;;14.05;;
14975;SDS011;7584;60.468;25.126;2023-09-19T14:43:28;20.15;;;13.00;;
14975;SDS011;7584;60.468;25.126;2023-09-19T14:45:55;20.77;;;14.50;;
14975;SDS011;7584;60.468;25.126;2023-09-19T14:48:22;22.02;;;13.73;;
14975;SDS011;7584;60.468;25.126;2023-09-19T14:50:50;18.92;;;15.30;;
14975;SDS011;7584;60.468;25.126;2023-09-19T14:53:16;18.17;;;14.50;;
14975;SDS011;7584;60.468;25.126;2023-09-19T14:55:41;17.38;;;14.38;;
14975;SDS011;7584;60.468;25.126;2023-09-19T14:58:09;20.10;;;14.18;;
14975;SDS011;7584;60.468;25.126;2023-09-19T15:00:35;21.88;;;14.73;;
14975;SDS011;7584;60.468;25.126;2023-09-19T15:03:00;24.50;;;15.75;;
14975;SDS011;7584;60.468;25.126;2023-09-19T15:05:27;21.73;;;16.73;;
14975;SDS011;7584;60.468;25.126;2023-09-19T15:07:53;21.55;;;15.25;;
14975;SDS011;7584;60.468;25.126;2023-09-19T15:10:18;23.73;;;16.88;;
14975;SDS011;7584;60.468;25.126;2023-09-19T15:12:43;21.60;;;15.75;;
14975;SDS011;7584;60.468;25.126;2023-09-19T15:15:09;25.77;;;17.08;;
14975;SDS011;7584;60.468;25.126;2023-09-19T15:17:35;23.88;;;16.65;;
14975;SDS011;7584;60.468;25.126;2023-09-19T15:20:01;21.42;;;15.85;;
14975;SDS011;7584;60.468;25.126;2023-09-19T15:22:27;24.00;;;15.20;;
14975;SDS011;7584;60.468;25.126;2023-09-19T15:24:52;20.27;;;15.48;;